Time;durP1;ratioP1;P1;durP2;ratioP2;P2;SDS_P1;SDS_P2;PMS_P1;PMS_P2;Temp;Humidity;BMP_temperature;BMP_pressure;BME280_temperature;BME280_humidity;BME280_pressure;Samples;Min_cycle;Max_cycle;Signal;HPM_P1;HPM_P2
2023/07/27 00:01:28;;;;;;;9.63;4.40;;;14.20;99.90;;;;;;5116759;28;20122;-71
2023/07/27 00:03:54;;;;;;;9.30;4.00;;;14.20;99.90;;;;;;5116612;28;20049;-71
2023/07/27 00:06:20;;;;;;;7.82;3.90;;;14.30;99.90;;;;;;5116853;28;20039;-71
2023/07/27 00:08:46;;;;;;;11.27;4.13;;;14.30;99.90;;;;;;5134404;28;20074;-71
2023/07/27 00:11:12;;;;;;;9.48;3.97;;;14.30;99.90;;;;;;5135517;28;20042;-71
2023/07/27 00:13:38;;;;;;;9.15;3.95;;;14.20;99.90;;;;;;5116276;28;20046;-69
2023/07/27 00:16:04;;;;;;;9.18;3.78;;;14.30;99.90;;;;;;5117373;28;20097;-70
2023/07/27 00:18:29;;;;;;;10.07;4.00;;;14.30;99.90;;;;;;5150867;27;20375;-71
2023/07/27 00:20:55;;;;;;;10.82;4.10;;;14.30;99.90;;;;;;5134683;28;20126;-71
2023/07/27 00:23:20;;;;;;;8.45;3.67;;;14.40;99.90;;;;;;5116389;28;20047;-71
2023/07/27 00:25:46;;;;;;;9.00;4.20;;;14.40;99.90;;;;;;5116209;28;20588;-71
2023/07/27 00:28:12;;;;;;;9.07;3.72;;;14.40;99.90;;;;;;5135424;28;20126;-70
2023/07/27 00:30:37;;;;;;;11.77;4.68;;;14.40;99.90;;;;;;5099931;28;20039;-70
2023/07/27 00:33:03;;;;;;;8.90;4.35;;;14.40;99.90;;;;;;5134028;27;20131;-71
2023/07/27 00:35:29;;;;;;;10.18;4.10;;;14.40;99.90;;;;;;5100180;28;20461;-71
2023/07/27 00:37:55;;;;;;;10.48;4.30;;;14.40;99.90;;;;;;5116357;28;20152;-71
2023/07/27 00:40:20;;;;;;;8.57;4.30;;;14.40;99.90;;;;;;5116509;28;20077;-71
2023/07/27 00:42:46;;;;;;;8.10;4.00;;;14.40;99.90;;;;;;5116045;28;20121;-70
2023/07/27 00:45:12;;;;;;;9.52;4.10;;;14.40;99.90;;;;;;5144877;27;20019;-70
2023/07/27 00:47:38;;;;;;;11.25;4.57;;;14.40;99.90;;;;;;5143934;27;20038;-71
2023/07/27 00:50:04;;;;;;;8.82;4.55;;;14.40;99.90;;;;;;5138758;27;20043;-71
2023/07/27 00:52:30;;;;;;;11.10;4.30;;;14.40;99.90;;;;;;5120211;27;20035;-70
2023/07/27 00:54:57;;;;;;;9.90;4.65;;;14.40;99.90;;;;;;5138168;27;20138;-71
2023/07/27 00:57:23;;;;;;;8.10;4.05;;;14.40;99.90;;;;;;5138280;27;20039;-71
2023/07/27 00:59:50;;;;;;;9.45;4.47;;;14.40;99.90;;;;;;5119806;27;20164;-74
2023/07/27 01:02:16;;;;;;;10.43;3.78;;;14.40;99.90;;;;;;5120347;27;20443;-71
2023/07/27 01:04:43;;;;;;;9.05;4.25;;;14.30;99.90;;;;;;5139316;27;20367;-70
2023/07/27 01:07:09;;;;;;;9.50;4.18;;;14.40;99.90;;;;;;5137927;27;20086;-71
2023/07/27 01:09:34;;;;;;;7.28;4.22;;;14.30;99.90;;;;;;5137938;27;20439;-71
2023/07/27 01:12:16;;;;;;;9.27;4.32;;;14.30;99.90;;;;;;5137729;27;20051;-70
2023/07/27 01:15:06;;;;;;;8.57;4.05;;;14.30;99.90;;;;;;5103758;27;20047;-71
2023/07/27 01:17:52;;;;;;;12.15;4.60;;;14.30;99.90;;;;;;5120602;27;20105;-71
2023/07/27 01:20:47;;;;;;;9.52;4.60;;;14.30;99.90;;;;;;5137765;27;20039;-71
2023/07/27 01:23:45;;;;;;;10.27;4.28;;;14.30;99.90;;;;;;5138002;27;20039;-70
2023/07/27 01:26:37;;;;;;;10.55;4.72;;;14.20;99.90;;;;;;5137787;27;20104;-70
2023/07/27 01:29:35;;;;;;;9.65;4.03;;;14.20;99.90;;;;;;5137136;27;20035;-70
2023/07/27 01:32:02;;;;;;;8.45;3.88;;;14.20;99.90;;;;;;5137548;27;20078;-69
2023/07/27 01:34:31;;;;;;;;;;;14.10;99.90;;;;;;5137587;27;20381;-70
2023/07/27 01:37:03;;;;;;;11.13;4.80;;;14.10;99.90;;;;;;5137086;27;19922;-70
2023/07/27 01:39:42;;;;;;;13.63;4.93;;;14.10;99.90;;;;;;5119063;27;20101;-70
2023/07/27 01:42:11;;;;;;;10.13;4.50;;;14.00;99.90;;;;;;5153810;27;20043;-70
2023/07/27 01:44:38;;;;;;;9.13;4.70;;;14.10;99.90;;;;;;5120031;27;20039;-70
2023/07/27 01:47:05;;;;;;;11.52;5.05;;;14.00;99.90;;;;;;5136982;27;20527;-71
2023/07/27 01:49:32;;;;;;;9.68;4.72;;;14.00;99.90;;;;;;5137684;27;20084;-71
2023/07/27 01:51:58;;;;;;;11.10;4.63;;;14.00;99.90;;;;;;5153474;27;20051;-71
2023/07/27 01:54:26;;;;;;;12.38;5.00;;;14.00;99.90;;;;;;5137566;27;20122;-70
2023/07/27 01:56:54;;;;;;;10.02;4.85;;;14.00;99.90;;;;;;5136870;27;20068;-70
2023/07/27 01:59:21;;;;;;;10.68;5.05;;;14.00;99.90;;;;;;5147821;27;20043;-70
2023/07/27 02:01:49;;;;;;;11.20;5.38;;;14.00;99.90;;;;;;5158067;27;20042;-72
2023/07/27 02:04:14;;;;;;;12.35;5.18;;;14.00;99.90;;;;;;5168181;27;20111;-72
2023/07/27 02:06:40;;;;;;;11.68;5.13;;;14.00;99.90;;;;;;5136564;27;20042;-71
2023/07/27 02:09:06;;;;;;;12.23;5.32;;;14.00;99.90;;;;;;5137003;27;20055;-70
2023/07/27 02:11:32;;;;;;;10.63;4.97;;;14.00;99.90;;;;;;5136868;27;20351;-70
2023/07/27 02:14:35;;;;;;;11.82;5.10;;;14.00;99.90;;;;;;5118481;27;20039;-69
2023/07/27 02:17:07;;;;;;;10.10;4.80;;;14.10;99.90;;;;;;5132688;27;20047;-70
2023/07/27 02:19:37;;;;;;;11.95;5.10;;;14.00;99.90;;;;;;5120068;27;20039;-70
2023/07/27 02:22:06;;;;;;;9.85;5.22;;;14.10;99.90;;;;;;5153747;27;20047;-71
2023/07/27 02:24:33;;;;;;;14.77;5.78;;;14.10;99.90;;;;;;5153266;27;20099;-71
2023/07/27 02:26:58;;;;;;;10.38;5.03;;;14.10;99.90;;;;;;5119135;27;20050;-71
2023/07/27 02:29:24;;;;;;;12.18;5.45;;;14.10;99.90;;;;;;5118652;27;20363;-71
2023/07/27 02:31:50;;;;;;;13.77;5.95;;;14.20;99.90;;;;;;5136493;27;20125;-70
2023/07/27 02:34:15;;;;;;;11.50;5.20;;;14.10;99.90;;;;;;5152681;27;20143;-70
2023/07/27 02:36:41;;;;;;;12.95;5.28;;;14.20;99.90;;;;;;5118283;27;20115;-72
2023/07/27 02:39:07;;;;;;;11.00;5.38;;;14.20;99.90;;;;;;5136432;27;20041;-71
2023/07/27 02:41:32;;;;;;;10.45;5.43;;;14.20;99.90;;;;;;5136128;27;20043;-72
2023/07/27 02:43:58;;;;;;;10.70;5.30;;;14.20;99.90;;;;;;5100999;27;20039;-72
2023/07/27 02:46:24;;;;;;;11.27;5.30;;;14.20;99.90;;;;;;5100895;27;20122;-71
2023/07/27 02:48:52;;;;;;;9.82;4.70;;;14.20;99.90;;;;;;5136570;27;20443;-72
2023/07/27 02:51:18;;;;;;;10.50;5.00;;;14.30;99.90;;;;;;5117884;27;20116;-69
2023/07/27 02:53:43;;;;;;;10.63;5.20;;;14.30;99.90;;;;;;5135802;27;20146;-71
2023/07/27 02:56:09;;;;;;;12.27;5.35;;;14.30;99.90;;;;;;5135786;27;20041;-72
2023/07/27 02:58:35;;;;;;;11.07;5.10;;;14.30;99.90;;;;;;5135899;27;20087;-71
2023/07/27 03:01:04;;;;;;;10.65;4.90;;;14.30;99.90;;;;;;5117034;27;20189;-72
2023/07/27 03:03:30;;;;;;;11.32;5.20;;;14.20;99.90;;;;;;5135804;27;20096;-71
2023/07/27 03:06:00;;;;;;;10.95;5.13;;;14.30;99.90;;;;;;5136162;27;20479;-72
2023/07/27 03:08:27;;;;;;;10.18;4.65;;;14.20;99.90;;;;;;5136906;27;20433;-71
2023/07/27 03:10:53;;;;;;;10.80;5.13;;;14.20;99.90;;;;;;5122401;27;20051;-72
2023/07/27 03:13:19;;;;;;;9.60;4.85;;;14.10;99.90;;;;;;5152123;27;20045;-70
2023/07/27 03:15:45;;;;;;;11.00;5.70;;;14.10;99.90;;;;;;5152710;27;20031;-71
2023/07/27 03:18:10;;;;;;;12.70;5.47;;;14.00;99.90;;;;;;5135495;27;20114;-72
2023/07/27 03:20:40;;;;;;;10.95;5.47;;;14.00;99.90;;;;;;5135862;27;20051;-71
2023/07/27 03:23:07;;;;;;;9.05;4.95;;;14.00;99.90;;;;;;5117115;27;20107;-70
2023/07/27 03:25:37;;;;;;;12.90;5.43;;;14.00;99.90;;;;;;5117452;27;20046;-70
2023/07/27 03:28:05;;;;;;;10.23;5.53;;;14.00;99.90;;;;;;5135835;27;20043;-68
2023/07/27 03:30:31;;;;;;;10.40;5.18;;;13.90;99.90;;;;;;5135720;27;20035;-68
2023/07/27 03:32:57;;;;;;;13.15;5.40;;;13.90;99.90;;;;;;5135104;27;20035;-68
2023/07/27 03:35:23;;;;;;;9.85;4.95;;;13.90;99.90;;;;;;5135205;27;20039;-68
2023/07/27 03:37:50;;;;;;;10.60;5.40;;;13.90;99.90;;;;;;5135465;27;20118;-69
2023/07/27 03:40:17;;;;;;;10.48;5.35;;;13.90;99.90;;;;;;5100600;27;20035;-69
2023/07/27 03:42:43;;;;;;;11.52;5.43;;;13.80;99.90;;;;;;5135066;27;20043;-68
2023/07/27 03:45:09;;;;;;;11.50;5.45;;;13.80;99.90;;;;;;5099972;28;20122;-68
2023/07/27 03:47:34;;;;;;;11.15;5.10;;;13.80;99.90;;;;;;5134848;27;20157;-68
2023/07/27 03:50:00;;;;;;;12.40;5.30;;;13.80;99.90;;;;;;5116659;28;20086;-69
2023/07/27 03:52:26;;;;;;;10.20;5.18;;;13.80;99.90;;;;;;5135354;28;20039;-69
2023/07/27 03:54:51;;;;;;;11.18;5.25;;;13.80;99.90;;;;;;5151940;27;20045;-70
2023/07/27 03:57:17;;;;;;;9.70;4.95;;;13.70;99.90;;;;;;5135499;28;20035;-70
2023/07/27 03:59:43;;;;;;;10.73;5.05;;;13.80;99.90;;;;;;5116587;28;20117;-69
2023/07/27 04:02:09;;;;;;;11.27;5.45;;;13.80;99.90;;;;;;5099822;28;20085;-70
2023/07/27 04:04:34;;;;;;;10.27;5.28;;;13.80;99.90;;;;;;5116560;27;20039;-70
2023/07/27 04:07:00;;;;;;;10.48;5.43;;;13.80;99.90;;;;;;5134760;28;20039;-70
2023/07/27 04:09:26;;;;;;;11.73;5.10;;;13.80;99.90;;;;;;5116685;28;20051;-69
2023/07/27 04:11:52;;;;;;;12.98;5.10;;;13.80;99.90;;;;;;5116927;28;20077;-69
2023/07/27 04:14:18;;;;;;;12.20;5.47;;;13.80;99.90;;;;;;5135520;28;20035;-69
2023/07/27 04:16:44;;;;;;;10.63;5.35;;;13.80;99.90;;;;;;5135567;28;20066;-71
2023/07/27 04:19:09;;;;;;;9.55;5.53;;;13.80;99.90;;;;;;5151525;28;20037;-71
2023/07/27 04:21:35;;;;;;;10.35;5.65;;;13.70;99.90;;;;;;5142412;27;20043;-71
2023/07/27 04:24:01;;;;;;;11.27;5.50;;;13.70;99.90;;;;;;5138814;27;20471;-71
2023/07/27 04:26:27;;;;;;;10.95;5.55;;;13.70;99.90;;;;;;5120675;27;20122;-70
2023/07/27 04:28:53;;;;;;;12.65;5.50;;;13.70;99.90;;;;;;5120639;27;20131;-71
2023/07/27 04:31:18;;;;;;;12.77;5.63;;;13.70;99.90;;;;;;5139046;27;20039;-78
2023/07/27 04:33:44;;;;;;;10.50;4.95;;;13.70;99.90;;;;;;5120245;27;20047;-70
2023/07/27 04:36:09;;;;;;;10.30;5.30;;;13.80;99.90;;;;;;5138347;27;20081;-72
2023/07/27 04:38:35;;;;;;;10.45;4.97;;;13.80;99.90;;;;;;5138269;27;20074;-70
2023/07/27 04:41:01;;;;;;;11.93;4.90;;;13.80;99.90;;;;;;5103571;27;20039;-70
2023/07/27 04:43:27;;;;;;;10.00;4.68;;;13.80;99.90;;;;;;5138351;27;20039;-70
2023/07/27 04:45:52;;;;;;;12.85;4.68;;;13.80;99.90;;;;;;5137840;27;20042;-69
2023/07/27 04:48:18;;;;;;;11.45;4.85;;;13.80;99.90;;;;;;5120665;27;20031;-70
2023/07/27 04:50:44;;;;;;;9.48;4.70;;;13.90;99.90;;;;;;5120059;27;20471;-70
2023/07/27 04:53:09;;;;;;;11.55;4.47;;;13.90;99.90;;;;;;5138529;27;20126;-70
2023/07/27 04:55:35;;;;;;;10.80;4.90;;;13.90;99.90;;;;;;5138271;27;20058;-71
2023/07/27 04:58:01;;;;;;;9.13;4.32;;;13.90;99.90;;;;;;5137889;27;20042;-70
2023/07/27 05:00:26;;;;;;;10.15;4.50;;;13.90;99.90;;;;;;5119759;27;20130;-70
2023/07/27 05:02:52;;;;;;;9.02;3.75;;;13.90;99.90;;;;;;5137763;27;20130;-68
2023/07/27 05:05:18;;;;;;;10.57;4.10;;;14.00;99.90;;;;;;5137838;27;20039;-72
2023/07/27 05:07:43;;;;;;;9.20;3.50;;;14.00;99.90;;;;;;5137779;27;20135;-68
2023/07/27 05:10:09;;;;;;;7.05;3.83;;;14.10;99.90;;;;;;5137827;27;20065;-70
2023/07/27 05:12:35;;;;;;;8.25;3.58;;;14.10;99.90;;;;;;5102307;27;20073;-70
2023/07/27 05:15:01;;;;;;;7.82;3.78;;;14.10;99.90;;;;;;5102184;27;20077;-68
2023/07/27 05:17:27;;;;;;;7.38;4.15;;;14.10;99.90;;;;;;5119220;27;20124;-70
2023/07/27 05:19:56;;;;;;;9.15;3.85;;;14.20;99.90;;;;;;5137500;27;20079;-71
2023/07/27 05:22:21;;;;;;;10.73;4.43;;;14.20;99.90;;;;;;5119293;27;20042;-71
2023/07/27 05:24:47;;;;;;;9.77;4.57;;;14.20;99.90;;;;;;5139242;27;20035;-70
2023/07/27 05:27:13;;;;;;;9.60;4.78;;;14.20;99.90;;;;;;5155636;27;20031;-71
2023/07/27 05:29:38;;;;;;;12.15;5.30;;;14.20;99.90;;;;;;5124684;27;20083;-69
2023/07/27 05:32:05;;;;;;;13.30;5.93;;;14.20;99.90;;;;;;5137220;27;20164;-69
2023/07/27 05:34:32;;;;;;;11.37;5.53;;;14.20;99.90;;;;;;5118906;27;20035;-70
2023/07/27 05:36:57;;;;;;;12.73;6.47;;;14.30;99.90;;;;;;5118966;27;20066;-70
2023/07/27 05:39:23;;;;;;;13.98;6.50;;;14.30;99.90;;;;;;5101957;27;20051;-70
2023/07/27 05:41:49;;;;;;;13.57;6.70;;;14.30;99.90;;;;;;5137053;27;20050;-72
2023/07/27 05:44:14;;;;;;;12.65;6.88;;;14.30;99.90;;;;;;5153412;27;20438;-73
2023/07/27 05:46:40;;;;;;;13.38;7.05;;;14.30;99.90;;;;;;5137780;27;20126;-70
2023/07/27 05:49:06;;;;;;;14.10;7.57;;;14.30;99.90;;;;;;5136972;27;20126;-71
2023/07/27 05:51:32;;;;;;;15.63;7.60;;;14.30;99.90;;;;;;5118650;27;20114;-73
2023/07/27 05:53:57;;;;;;;14.73;7.65;;;14.30;99.90;;;;;;5101599;27;20047;-71
2023/07/27 05:56:23;;;;;;;14.48;7.43;;;14.40;99.90;;;;;;5118734;27;20078;-72
2023/07/27 05:58:49;;;;;;;18.35;8.95;;;14.30;99.90;;;;;;5118414;27;20104;-72
2023/07/27 06:01:16;;;;;;;16.52;8.43;;;14.40;99.90;;;;;;5117973;27;20128;-72
2023/07/27 06:03:43;;;;;;;17.05;8.75;;;14.30;99.90;;;;;;5119225;27;20377;-72
2023/07/27 06:06:09;;;;;;;16.58;9.30;;;14.40;99.90;;;;;;5152723;27;20092;-71
2023/07/27 06:08:35;;;;;;;14.73;8.15;;;14.40;99.90;;;;;;5118276;27;20059;-70
2023/07/27 06:11:01;;;;;;;17.50;8.02;;;14.40;99.90;;;;;;5085127;27;20054;-70
2023/07/27 06:13:27;;;;;;;17.13;9.18;;;14.40;99.90;;;;;;5118217;27;20043;-74
2023/07/27 06:15:53;;;;;;;19.20;9.85;;;14.40;99.90;;;;;;5136478;27;20046;-71
2023/07/27 06:18:18;;;;;;;15.93;9.35;;;14.50;99.90;;;;;;5119143;27;20359;-72
2023/07/27 06:20:44;;;;;;;18.98;9.50;;;14.50;99.90;;;;;;5118235;27;20046;-71
2023/07/27 06:23:10;;;;;;;17.77;8.95;;;14.50;99.90;;;;;;5137078;27;20047;-70
2023/07/27 06:25:35;;;;;;;20.42;9.90;;;14.50;99.90;;;;;;5137029;27;20593;-70
2023/07/27 06:28:01;;;;;;;18.98;9.95;;;14.50;99.90;;;;;;5117915;27;20046;-71
2023/07/27 06:30:27;;;;;;;16.40;8.57;;;14.50;99.90;;;;;;5117989;27;20103;-71
2023/07/27 06:32:53;;;;;;;17.92;10.02;;;14.60;99.90;;;;;;5151848;27;20043;-71
2023/07/27 06:35:18;;;;;;;17.02;9.02;;;14.60;99.90;;;;;;5152269;27;20039;-71
2023/07/27 06:37:44;;;;;;;15.48;8.73;;;14.60;99.90;;;;;;5102591;27;20344;-72
2023/07/27 06:40:10;;;;;;;16.58;8.45;;;14.60;99.90;;;;;;5136745;27;20046;-70
2023/07/27 06:42:37;;;;;;;19.45;9.85;;;14.70;99.90;;;;;;5136053;27;20047;-76
2023/07/27 06:45:03;;;;;;;17.65;9.35;;;14.70;99.90;;;;;;5135462;27;20043;-72
2023/07/27 06:47:28;;;;;;;16.48;8.98;;;14.70;99.90;;;;;;5135652;27;20098;-72
2023/07/27 06:49:54;;;;;;;14.70;7.95;;;14.70;99.90;;;;;;5100809;27;20046;-74
2023/07/27 06:52:20;;;;;;;14.93;7.85;;;14.80;99.90;;;;;;5118401;27;20047;-71
2023/07/27 06:54:45;;;;;;;15.20;7.68;;;14.80;99.90;;;;;;5117376;27;20049;-72
2023/07/27 06:57:11;;;;;;;14.55;7.63;;;14.90;99.90;;;;;;5135812;27;20375;-73
2023/07/27 06:59:37;;;;;;;17.50;8.13;;;14.90;99.90;;;;;;5117595;27;20099;-73
2023/07/27 07:02:03;;;;;;;13.57;7.63;;;14.90;99.90;;;;;;5117721;27;20045;-72
2023/07/27 07:04:31;;;;;;;11.38;6.97;;;14.90;99.90;;;;;;5134915;27;20112;-71
2023/07/27 07:06:57;;;;;;;12.88;6.93;;;14.90;99.90;;;;;;5134086;27;20051;-73
2023/07/27 07:09:23;;;;;;;11.80;6.57;;;15.00;99.90;;;;;;5135714;27;20051;-73
2023/07/27 07:11:49;;;;;;;10.73;6.03;;;15.10;99.90;;;;;;5117482;27;20130;-72
2023/07/27 07:14:14;;;;;;;10.45;5.38;;;15.10;99.90;;;;;;5117987;27;20046;-73
2023/07/27 07:16:40;;;;;;;10.95;6.28;;;15.10;99.90;;;;;;5135520;27;20389;-81
2023/07/27 07:19:06;;;;;;;10.95;6.03;;;15.10;99.90;;;;;;5118100;27;20123;-73
2023/07/27 07:21:31;;;;;;;10.15;5.13;;;15.10;99.90;;;;;;5134567;27;20050;-74
2023/07/27 07:23:57;;;;;;;11.20;5.85;;;15.10;99.90;;;;;;5116907;27;20080;-75
2023/07/27 07:26:24;;;;;;;9.48;4.95;;;15.10;99.90;;;;;;5135235;27;20043;-76
2023/07/27 07:28:49;;;;;;;10.52;5.20;;;15.10;99.90;;;;;;5117031;27;20039;-73
2023/07/27 07:31:15;;;;;;;10.98;5.20;;;15.10;99.90;;;;;;5099714;27;20054;-74
2023/07/27 07:33:41;;;;;;;7.32;4.38;;;15.10;99.90;;;;;;5135855;27;20079;-73
2023/07/27 07:36:07;;;;;;;8.48;4.78;;;15.10;99.90;;;;;;5135148;27;20045;-74
2023/07/27 07:38:32;;;;;;;8.55;4.65;;;15.10;99.90;;;;;;5117030;27;20415;-73
2023/07/27 07:40:58;;;;;;;9.35;5.15;;;15.10;99.90;;;;;;5134989;27;20031;-75
2023/07/27 07:43:24;;;;;;;8.93;4.57;;;15.10;99.90;;;;;;5162705;27;20027;-73
2023/07/27 07:45:49;;;;;;;8.50;4.38;;;15.20;99.90;;;;;;5136298;28;20050;-74
2023/07/27 07:48:15;;;;;;;8.07;4.45;;;15.20;99.90;;;;;;5135067;27;20118;-76
2023/07/27 07:50:41;;;;;;;9.55;4.78;;;15.20;99.90;;;;;;5117656;28;20053;-74
2023/07/27 07:53:07;;;;;;;8.38;5.03;;;15.10;99.90;;;;;;5135182;28;20158;-73
2023/07/27 07:55:36;;;;;;;8.73;4.05;;;15.10;99.90;;;;;;5119583;27;20049;-74
2023/07/27 07:58:03;;;;;;;8.57;4.55;;;15.10;99.90;;;;;;5141446;27;20039;-74
2023/07/27 08:00:28;;;;;;;8.68;4.57;;;15.10;99.90;;;;;;5157638;27;20046;-75
2023/07/27 08:02:54;;;;;;;8.38;4.50;;;15.10;99.90;;;;;;5123241;27;20039;-74
2023/07/27 08:05:20;;;;;;;6.63;3.83;;;15.10;99.90;;;;;;5141713;27;20047;-75
2023/07/27 08:07:45;;;;;;;7.45;4.03;;;15.10;99.90;;;;;;5123044;27;20367;-74
2023/07/27 08:10:11;;;;;;;8.88;4.38;;;15.20;99.90;;;;;;5123380;27;20047;-73
2023/07/27 08:12:38;;;;;;;7.20;3.90;;;15.20;99.90;;;;;;5123681;27;20051;-74
2023/07/27 08:15:05;;;;;;;7.80;4.00;;;15.20;99.90;;;;;;5123286;27;20042;-74
2023/07/27 08:17:31;;;;;;;7.47;3.38;;;15.20;99.90;;;;;;5123615;27;20054;-73
2023/07/27 08:19:57;;;;;;;8.05;3.45;;;15.20;99.90;;;;;;5157846;27;20379;-72
2023/07/27 08:22:23;;;;;;;9.80;3.38;;;15.20;99.90;;;;;;5141863;27;20067;-73
2023/07/27 08:24:50;;;;;;;7.10;3.70;;;15.20;99.90;;;;;;5141621;27;20043;-85
2023/07/27 08:27:16;;;;;;;6.22;3.35;;;15.20;99.90;;;;;;5141329;27;20047;-73
2023/07/27 08:29:41;;;;;;;7.47;3.85;;;15.30;99.90;;;;;;5106260;27;20039;-73
2023/07/27 08:32:07;;;;;;;7.30;3.47;;;15.30;99.90;;;;;;5123513;27;20041;-72
2023/07/27 08:34:33;;;;;;;5.28;3.13;;;15.40;99.90;;;;;;5123662;27;20437;-73
2023/07/27 08:36:59;;;;;;;5.65;3.03;;;15.60;99.90;;;;;;5106358;27;20116;-71
2023/07/27 08:39:25;;;;;;;7.18;3.40;;;15.60;99.90;;;;;;5123196;27;20041;-74
2023/07/27 08:41:51;;;;;;;5.60;3.55;;;15.70;99.90;;;;;;5089196;27;20529;-73
2023/07/27 08:44:17;;;;;;;4.93;2.97;;;15.70;99.90;;;;;;5106496;27;20379;-73
2023/07/27 08:46:43;;;;;;;5.20;2.63;;;15.70;99.90;;;;;;5123255;27;20047;-73
2023/07/27 08:49:13;;;;;;;5.55;3.30;;;15.80;99.90;;;;;;5122816;27;20117;-73
2023/07/27 08:51:43;;;;;;;8.02;3.30;;;15.90;99.90;;;;;;5142431;27;20039;-73
2023/07/27 08:54:09;;;;;;;5.00;2.85;;;15.90;99.90;;;;;;5145536;27;20031;-73
2023/07/27 08:56:35;;;;;;;4.17;2.20;;;16.00;99.90;;;;;;5146669;27;20039;-73
2023/07/27 08:59:01;;;;;;;4.65;2.97;;;15.90;99.90;;;;;;5141340;27;20053;-73
2023/07/27 09:01:27;;;;;;;5.03;2.92;;;16.00;99.90;;;;;;5141254;27;20038;-72
2023/07/27 09:03:53;;;;;;;4.78;3.15;;;16.00;99.90;;;;;;5106197;27;20042;-72
2023/07/27 09:06:45;;;;;;;4.30;2.88;;;16.10;99.90;;;;;;5140706;27;20043;-73
2023/07/27 09:09:16;;;;;;;4.40;2.72;;;16.30;99.90;;;;;;5102111;27;20079;-72
2023/07/27 09:11:42;;;;;;;4.25;2.40;;;16.40;99.90;;;;;;5137425;27;20050;-72
2023/07/27 09:14:09;;;;;;;4.43;2.47;;;16.60;99.90;;;;;;5137619;27;20082;-71
2023/07/27 09:16:35;;;;;;;4.07;2.20;;;16.70;99.90;;;;;;5138360;27;20463;-72
2023/07/27 09:19:02;;;;;;;3.63;2.10;;;16.80;99.90;;;;;;5137486;27;20277;-73
2023/07/27 09:21:36;;;;;;;3.47;1.70;;;16.70;99.90;;;;;;5119789;27;20039;-72
2023/07/27 09:24:02;;;;;;;3.40;1.70;;;16.80;99.90;;;;;;5087175;27;20378;-72
2023/07/27 09:26:28;;;;;;;3.08;1.52;;;16.80;99.90;;;;;;5137454;27;20047;-71
2023/07/27 09:28:54;;;;;;;3.75;1.80;;;16.80;99.90;;;;;;5119021;27;20115;-73
2023/07/27 09:31:19;;;;;;;3.22;1.60;;;16.90;99.90;;;;;;5137347;27;20050;-73
2023/07/27 09:33:45;;;;;;;2.65;1.75;;;16.90;99.90;;;;;;5119013;27;20050;-72
2023/07/27 09:36:11;;;;;;;3.33;1.83;;;17.00;99.90;;;;;;5137846;27;20078;-73
2023/07/27 09:38:38;;;;;;;2.45;1.35;;;17.10;99.90;;;;;;5119120;27;20107;-73
2023/07/27 09:41:07;;;;;;;4.30;1.90;;;17.20;99.90;;;;;;5137629;27;20046;-73
2023/07/27 09:43:40;;;;;;;3.38;1.77;;;17.20;99.90;;;;;;5119239;27;20376;-72
2023/07/27 09:46:06;;;;;;;3.53;1.90;;;17.20;99.90;;;;;;5119719;27;20039;-72
2023/07/27 09:48:32;;;;;;;5.75;2.20;;;17.30;99.90;;;;;;5118748;27;20027;-72
2023/07/27 09:51:01;;;;;;;;;;;17.40;99.90;;;;;;5137645;27;20043;-73
2023/07/27 09:53:32;;;;;;;4.43;2.10;;;17.50;99.90;;;;;;5137278;27;19916;-73
2023/07/27 09:55:59;;;;;;;3.35;1.80;;;17.50;99.90;;;;;;5153721;27;20047;-73
2023/07/27 09:58:25;;;;;;;;;;;17.70;99.90;;;;;;5102640;27;20038;-73
2023/07/27 10:00:50;;;;;;;2.90;1.42;;;17.90;99.90;;;;;;5119222;27;19916;-71
2023/07/27 10:03:16;;;;;;;2.53;1.43;;;18.00;99.90;;;;;;5158678;27;20062;-73
2023/07/27 10:05:44;;;;;;;2.65;1.58;;;18.00;99.90;;;;;;5128961;27;20457;-72
2023/07/27 10:08:10;;;;;;;2.92;1.70;;;18.10;99.90;;;;;;5137108;27;20054;-74
2023/07/27 10:10:39;;;;;;;3.25;1.98;;;18.10;99.90;;;;;;5118869;27;20051;-72
2023/07/27 10:13:13;;;;;;;3.22;1.55;;;18.00;99.90;;;;;;5136981;27;20486;-73
2023/07/27 10:15:41;;;;;;;2.80;1.73;;;18.10;99.90;;;;;;5137407;27;20034;-73
2023/07/27 10:18:08;;;;;;;2.97;1.70;;;18.20;99.90;;;;;;5117803;27;20094;-74
2023/07/27 10:20:34;;;;;;;2.97;1.80;;;18.20;99.90;;;;;;5118513;27;20039;-71
2023/07/27 10:23:26;;;;;;;2.72;1.50;;;18.30;99.90;;;;;;5137142;27;20043;-73
2023/07/27 10:26:00;;;;;;;3.08;1.83;;;18.40;99.90;;;;;;5136793;27;20038;-72
2023/07/27 10:28:49;;;;;;;4.78;1.60;;;18.40;99.90;;;;;;5101606;27;20111;-72
2023/07/27 10:31:25;;;;;;;3.47;1.90;;;18.30;99.90;;;;;;5136496;27;20100;-71
2023/07/27 10:34:16;;;;;;;2.95;1.92;;;18.20;99.90;;;;;;5136196;27;20031;-71
2023/07/27 10:36:58;;;;;;;3.45;1.88;;;18.20;99.90;;;;;;5118436;27;20122;-71
2023/07/27 10:39:30;;;;;;;3.15;2.00;;;18.10;99.90;;;;;;5100900;27;20043;-72
2023/07/27 10:42:08;;;;;;;2.67;1.65;;;18.10;99.90;;;;;;5117992;27;20046;-72
2023/07/27 10:44:45;;;;;;;2.83;1.58;;;18.00;99.90;;;;;;5118015;27;20047;-72
2023/07/27 10:47:16;;;;;;;3.05;1.95;;;17.90;99.90;;;;;;5118118;27;20055;-72
2023/07/27 10:49:44;;;;;;;4.13;2.00;;;17.80;99.90;;;;;;5136676;27;20039;-73
2023/07/27 10:52:21;;;;;;;6.32;2.00;;;17.80;99.90;;;;;;5136047;27;20051;-75
2023/07/27 10:54:48;;;;;;;3.15;1.92;;;17.70;99.90;;;;;;5117593;27;20039;-73
2023/07/27 10:57:15;;;;;;;5.28;2.22;;;17.70;99.90;;;;;;5100489;27;20123;-73
2023/07/27 10:59:44;;;;;;;3.70;2.10;;;17.60;99.90;;;;;;5136323;27;20038;-74
2023/07/27 11:02:21;;;;;;;4.43;2.10;;;17.70;99.90;;;;;;5117705;27;20039;-74
2023/07/27 11:04:55;;;;;;;5.10;2.60;;;17.90;99.90;;;;;;5135765;27;20035;-74
2023/07/27 11:07:32;;;;;;;3.45;2.20;;;17.90;99.90;;;;;;5097205;28;20051;-74
2023/07/27 11:10:06;;;;;;;6.00;2.80;;;18.10;99.90;;;;;;5118865;28;20044;-74
2023/07/27 11:12:45;;;;;;;4.40;3.00;;;18.20;99.90;;;;;;5137467;28;20419;-73
2023/07/27 11:15:18;;;;;;;3.85;2.47;;;18.40;99.90;;;;;;5119333;28;20482;-74
2023/07/27 11:17:44;;;;;;;3.90;2.50;;;18.50;99.90;;;;;;5116120;28;20040;-73
2023/07/27 11:20:11;;;;;;;5.03;2.13;;;18.60;99.90;;;;;;5096658;28;20126;-73
2023/07/27 11:22:37;;;;;;;3.05;1.88;;;18.60;99.90;;;;;;5114404;28;20059;-75
2023/07/27 11:25:06;;;;;;;4.03;2.40;;;18.80;99.90;;;;;;5114706;28;20040;-74
2023/07/27 11:27:32;;;;;;;3.95;2.50;;;19.10;99.90;;;;;;5097203;28;20035;-73
2023/07/27 11:30:01;;;;;;;4.65;2.92;;;19.30;99.90;;;;;;5114978;27;20043;-74
2023/07/27 11:32:27;;;;;;;4.95;2.80;;;19.50;99.90;;;;;;5114820;28;20424;-72
2023/07/27 11:34:57;;;;;;;4.43;2.63;;;19.80;99.90;;;;;;5096799;28;20035;-74
2023/07/27 11:37:28;;;;;;;5.15;3.00;;;19.90;99.90;;;;;;5114772;28;20048;-72
2023/07/27 11:39:55;;;;;;;4.47;2.50;;;19.90;99.90;;;;;;5113109;28;20035;-73
2023/07/27 11:42:35;;;;;;;3.42;2.25;;;20.00;99.90;;;;;;5096612;28;20051;-72
2023/07/27 11:45:03;;;;;;;3.55;2.45;;;20.10;99.90;;;;;;5115392;28;20047;-72
2023/07/27 11:47:38;;;;;;;3.35;2.10;;;20.00;99.90;;;;;;5115268;28;20092;-72
2023/07/27 11:50:06;;;;;;;3.60;2.07;;;20.10;99.90;;;;;;5113435;28;20047;-72
2023/07/27 11:52:33;;;;;;;2.70;1.60;;;20.10;99.90;;;;;;5113354;28;20432;-72
2023/07/27 11:55:03;;;;;;;3.00;1.45;;;20.20;99.90;;;;;;5114622;28;20043;-72
2023/07/27 11:57:30;;;;;;;2.15;1.25;;;20.30;99.90;;;;;;5114475;28;20044;-71
2023/07/27 12:00:12;;;;;;;2.72;1.40;;;20.40;99.90;;;;;;5113511;28;20085;-71
2023/07/27 12:02:45;;;;;;;3.33;1.30;;;20.60;99.90;;;;;;5114176;28;20043;-73
2023/07/27 12:05:17;;;;;;;3.17;1.20;;;20.70;99.90;;;;;;5096953;28;20083;-71
2023/07/27 12:07:43;;;;;;;2.30;1.30;;;20.60;99.90;;;;;;5096226;28;20051;-71
2023/07/27 12:10:13;;;;;;;2.22;1.05;;;20.50;99.90;;;;;;5114387;28;20047;-71
2023/07/27 12:12:58;;;;;;;2.28;1.10;;;20.40;99.90;;;;;;5113843;28;20430;-71
2023/07/27 12:15:30;;;;;;;1.95;1.10;;;20.40;99.90;;;;;;5114793;28;20119;-71
2023/07/27 12:17:57;;;;;;;2.42;1.33;;;20.20;99.90;;;;;;5116446;28;20044;-71
2023/07/27 12:20:25;;;;;;;1.98;1.10;;;20.40;99.90;;;;;;5133787;28;20027;-76
2023/07/27 12:22:50;;;;;;;3.03;1.17;;;20.40;99.90;;;;;;5125932;28;20047;-70
2023/07/27 12:25:16;;;;;;;2.63;1.40;;;20.50;99.90;;;;;;5114569;28;20425;-71
2023/07/27 12:27:42;;;;;;;3.83;1.77;;;20.40;99.90;;;;;;5114235;28;20086;-72
2023/07/27 12:30:09;;;;;;;2.73;1.53;;;20.30;99.90;;;;;;5114189;28;20471;-71
2023/07/27 12:32:35;;;;;;;4.38;1.67;;;20.30;99.90;;;;;;5096791;28;20471;-71
2023/07/27 12:35:02;;;;;;;2.78;1.65;;;20.10;99.90;;;;;;5080026;28;20039;-70
2023/07/27 12:37:29;;;;;;;4.63;1.70;;;20.10;99.90;;;;;;5096507;28;20122;-70
2023/07/27 12:39:55;;;;;;;3.03;1.88;;;20.00;99.90;;;;;;5114369;28;20093;-72
2023/07/27 12:42:21;;;;;;;2.90;1.50;;;19.90;99.90;;;;;;5116667;28;20039;-72
2023/07/27 12:44:47;;;;;;;2.83;1.67;;;20.00;99.90;;;;;;5116940;28;20467;-72
2023/07/27 12:47:12;;;;;;;4.05;1.50;;;20.00;99.90;;;;;;5117900;28;20039;-74